createdAt,value
2023-10-18T00:00:24.578Z,4.75
2023-10-18T00:02:55.842Z,4.91
2023-10-18T00:05:24.479Z,4.82
2023-10-18T00:07:58.910Z,4.70
2023-10-18T00:10:28.258Z,4.83
2023-10-18T00:12:57.362Z,4.82
2023-10-18T00:15:24.910Z,4.68
2023-10-18T00:17:52.474Z,4.85
2023-10-18T00:20:27.065Z,4.92
2023-10-18T00:22:55.757Z,4.93
2023-10-18T00:25:23.905Z,4.79
2023-10-18T00:27:51.442Z,4.82
2023-10-18T00:30:22.520Z,4.93
2023-10-18T00:32:50.063Z,4.86
2023-10-18T00:35:38.964Z,4.69
2023-10-18T00:38:09.561Z,4.83
2023-10-18T00:40:38.885Z,4.70
2023-10-18T00:43:23.482Z,4.60
2023-10-18T00:45:52.629Z,4.76
2023-10-18T00:48:26.962Z,4.75
2023-10-18T00:50:56.251Z,4.60
2023-10-18T00:53:25.393Z,4.76
2023-10-18T00:56:02.529Z,4.83
2023-10-18T00:58:33.779Z,4.67
2023-10-18T01:01:07.327Z,4.63
2023-10-18T01:03:37.446Z,4.80
2023-10-18T01:06:22.665Z,4.80
2023-10-18T01:08:50.386Z,4.64
2023-10-18T01:11:23.726Z,4.69
2023-10-18T01:13:51.139Z,4.80
2023-10-18T01:16:23.337Z,4.65
2023-10-18T01:18:53.446Z,4.61
2023-10-18T01:21:21.615Z,4.78
2023-10-18T01:23:54.120Z,4.66
2023-10-18T01:26:25.209Z,4.57
2023-10-18T01:28:53.565Z,4.67
2023-10-18T01:31:21.985Z,4.66
2023-10-18T01:33:50.786Z,4.49
2023-10-18T01:36:19.388Z,4.55
2023-10-18T01:38:50.021Z,4.60
2023-10-18T01:41:27.135Z,4.47
2023-10-18T01:44:19.544Z,4.47
2023-10-18T01:46:47.751Z,4.55
2023-10-18T01:49:18.452Z,4.38
2023-10-18T01:51:47.828Z,4.42
2023-10-18T01:54:16.985Z,4.51
2023-10-18T01:56:44.495Z,4.43
2023-10-18T01:59:16.056Z,4.32
2023-10-18T02:01:46.621Z,4.45
2023-10-18T02:04:35.823Z,4.49
2023-10-18T02:07:08.822Z,4.26
2023-10-18T02:10:05.704Z,4.32
2023-10-18T02:12:33.149Z,4.40
2023-10-18T02:15:02.656Z,4.28
2023-10-18T02:17:30.224Z,4.21
2023-10-18T02:20:01.280Z,4.35
2023-10-18T02:22:29.051Z,4.29
2023-10-18T02:24:57.655Z,4.18
2023-10-18T02:27:26.019Z,4.32
2023-10-18T02:29:54.243Z,4.34
2023-10-18T02:32:25.355Z,4.29
2023-10-18T02:34:53.691Z,4.10
2023-10-18T02:37:21.377Z,4.14
2023-10-18T02:40:04.546Z,4.26
2023-10-18T02:42:34.421Z,4.25
2023-10-18T02:45:02.401Z,4.07
2023-10-18T02:47:31.410Z,4.22
2023-10-18T02:49:59.959Z,4.22
2023-10-18T02:52:31.963Z,4.09
2023-10-18T02:55:03.104Z,4.21
2023-10-18T02:57:33.709Z,4.16
2023-10-18T03:00:11.431Z,4.09
2023-10-18T03:02:40.108Z,4.30
2023-10-18T03:05:08.416Z,4.26
2023-10-18T03:10:29.200Z,4.05
2023-10-18T03:12:57.625Z,4.16
2023-10-18T03:15:25.955Z,4.31
2023-10-18T03:17:53.401Z,4.28
2023-10-18T03:20:23.522Z,4.10
2023-10-18T03:22:52.257Z,4.22
2023-10-18T03:25:28.221Z,4.21
2023-10-18T03:27:59.825Z,4.05
2023-10-18T03:30:47.105Z,4.15
2023-10-18T03:33:15.303Z,4.14
2023-10-18T03:35:45.125Z,4.05
2023-10-18T03:38:19.476Z,4.12
2023-10-18T03:40:57.488Z,4.17
2023-10-18T03:43:34.256Z,4.02
2023-10-18T03:46:15.246Z,3.95
2023-10-18T03:48:47.285Z,4.08
2023-10-18T03:51:20.592Z,4.02
2023-10-18T03:53:54.025Z,3.90
2023-10-18T03:56:23.402Z,4.01
2023-10-18T03:58:54.710Z,3.98
2023-10-18T04:01:23.629Z,3.81
2023-10-18T04:03:51.354Z,3.91
2023-10-18T04:06:29.816Z,3.92
2023-10-18T04:09:06.098Z,3.83
2023-10-18T04:11:34.605Z,3.77
2023-10-18T04:14:01.989Z,3.87
2023-10-18T04:16:31.869Z,3.79
2023-10-18T04:19:00.948Z,3.75
2023-10-18T04:21:29.024Z,3.87
2023-10-18T04:23:58.218Z,3.86
2023-10-18T04:26:28.455Z,3.87
2023-10-18T04:28:59.336Z,3.73
2023-10-18T04:31:27.880Z,3.80
2023-10-18T04:33:55.851Z,3.92
2023-10-18T04:36:23.780Z,3.79
2023-10-18T04:38:52.997Z,3.80
2023-10-18T04:41:25.448Z,3.97
2023-10-18T04:44:12.624Z,3.92
2023-10-18T04:46:40.870Z,3.91
2023-10-18T04:49:11.471Z,4.01
2023-10-18T04:51:41.832Z,4.12
2023-10-18T04:54:12.836Z,4.09
2023-10-18T04:56:40.538Z,4.04
2023-10-18T04:59:18.488Z,4.20
2023-10-18T05:01:57.098Z,4.23
2023-10-18T05:04:36.205Z,4.17
2023-10-18T05:07:12.482Z,4.33
2023-10-18T05:09:42.976Z,4.43
2023-10-18T05:12:21.343Z,4.34
2023-10-18T05:14:55.562Z,4.32
2023-10-18T05:17:23.360Z,4.46
2023-10-18T05:19:51.834Z,4.30
2023-10-18T05:22:25.329Z,4.28
2023-10-18T05:25:12.582Z,4.42
2023-10-18T05:27:40.370Z,4.32
2023-10-18T05:30:16.294Z,4.34
2023-10-18T05:33:02.827Z,4.53
2023-10-18T05:35:44.994Z,4.46
2023-10-18T05:38:15.197Z,4.48
2023-10-18T05:40:42.642Z,4.62
2023-10-18T05:43:39.853Z,4.61
2023-10-18T05:46:09.170Z,4.53
2023-10-18T05:48:42.627Z,4.71
2023-10-18T05:51:36.808Z,4.74
2023-10-18T05:54:09.679Z,4.68
2023-10-18T05:56:37.892Z,4.88
2023-10-18T05:59:21.462Z,4.99
2023-10-18T06:01:50.829Z,4.89
2023-10-18T06:04:28.474Z,4.99
2023-10-18T06:07:00.128Z,5.12
2023-10-18T06:09:34.570Z,5.00
2023-10-18T06:12:02.364Z,4.97
2023-10-18T06:14:56.095Z,5.15
2023-10-18T06:18:02.332Z,5.08
2023-10-18T06:20:30.405Z,5.14
2023-10-18T06:23:11.292Z,5.29
2023-10-18T06:25:46.136Z,5.25
2023-10-18T06:28:21.377Z,5.18
2023-10-18T06:30:53.039Z,5.39
2023-10-18T06:33:22.548Z,5.51
2023-10-18T06:35:53.383Z,5.42
2023-10-18T06:38:25.101Z,5.52
2023-10-18T06:41:05.265Z,5.65
2023-10-18T06:43:34.335Z,5.69
2023-10-18T06:46:02.441Z,5.62
2023-10-18T06:48:32.589Z,5.82
2023-10-18T06:51:00.886Z,5.93
2023-10-18T06:53:28.731Z,5.88
2023-10-18T06:56:16.297Z,5.94
2023-10-18T06:58:43.724Z,6.18
2023-10-18T07:01:37.455Z,6.19
2023-10-18T07:04:06.971Z,6.13
2023-10-18T07:06:37.338Z,6.31
2023-10-18T07:09:24.784Z,6.44
2023-10-18T07:11:53.590Z,6.34
2023-10-18T07:14:21.389Z,6.48
2023-10-18T07:16:50.069Z,6.68
2023-10-18T07:19:28.249Z,6.66
2023-10-18T07:21:56.626Z,6.66
2023-10-18T07:24:44.758Z,6.92
2023-10-18T07:27:12.978Z,7.04
2023-10-18T07:29:47.454Z,7.03
2023-10-18T07:32:15.432Z,7.30
2023-10-18T07:34:44.279Z,7.48
2023-10-18T07:37:18.813Z,7.51
2023-10-18T07:39:50.408Z,7.65
2023-10-18T07:42:20.892Z,8.00
2023-10-18T07:44:53.941Z,8.09
2023-10-18T07:47:21.626Z,8.16
2023-10-18T07:49:48.969Z,8.25
2023-10-18T07:52:16.496Z,8.39
2023-10-18T07:54:44.127Z,8.55
2023-10-18T07:57:16.524Z,8.53
2023-10-18T07:59:49.996Z,8.50
2023-10-18T08:02:28.292Z,8.55
2023-10-18T08:05:02.278Z,8.87
2023-10-18T08:07:33.309Z,9.12
2023-10-18T08:10:08.795Z,9.12
2023-10-18T08:12:36.395Z,9.15
2023-10-18T08:15:15.564Z,9.25
2023-10-18T08:17:47.153Z,9.40
2023-10-18T08:20:23.468Z,9.66
2023-10-18T08:22:51.842Z,9.59
2023-10-18T08:25:23.582Z,9.51
2023-10-18T08:27:52.732Z,9.51
2023-10-18T08:30:40.342Z,9.59
2023-10-18T08:33:08.430Z,9.61
2023-10-18T08:35:37.620Z,9.58
2023-10-18T08:38:05.573Z,9.51
2023-10-18T08:40:35.853Z,9.45
2023-10-18T08:43:16.592Z,9.40
2023-10-18T08:45:47.488Z,9.47
2023-10-18T08:48:18.009Z,9.56
2023-10-18T08:50:46.349Z,9.75
2023-10-18T08:53:16.358Z,10.06
2023-10-18T08:55:53.010Z,10.11
2023-10-18T08:58:21.285Z,10.06
2023-10-18T09:00:48.725Z,10.10
2023-10-18T09:03:16.406Z,10.25
2023-10-18T09:05:44.026Z,10.40
2023-10-18T09:08:15.944Z,10.45
2023-10-18T09:10:51.043Z,10.49
2023-10-18T09:13:19.895Z,10.58
2023-10-18T09:16:01.727Z,10.71
2023-10-18T09:18:34.141Z,10.79
2023-10-18T09:21:11.280Z,10.66
2023-10-18T09:23:38.852Z,10.57
2023-10-18T09:26:12.553Z,10.45
2023-10-18T09:28:44.082Z,10.50
2023-10-18T09:31:14.310Z,10.70
2023-10-18T09:33:51.844Z,10.96
2023-10-18T09:36:27.049Z,11.14
2023-10-18T09:38:59.169Z,11.15
2023-10-18T09:41:32.880Z,11.07
2023-10-18T09:44:02.595Z,10.94
2023-10-18T09:46:31.136Z,10.93
2023-10-18T09:48:59.602Z,10.94
2023-10-18T09:51:27.762Z,10.94
2023-10-18T09:53:55.876Z,10.95
2023-10-18T09:56:36.555Z,10.92
2023-10-18T09:59:09.355Z,10.96
2023-10-18T10:01:44.343Z,11.07
2023-10-18T10:04:16.755Z,11.14
2023-10-18T10:06:48.104Z,11.09
2023-10-18T10:09:16.081Z,10.93
2023-10-18T10:11:45.312Z,10.89
2023-10-18T10:14:23.216Z,10.90
2023-10-18T10:16:59.853Z,10.85
2023-10-18T10:19:32.824Z,10.78
2023-10-18T10:22:06.446Z,10.61
2023-10-18T10:24:43.921Z,10.62
2023-10-18T10:27:33.266Z,10.71
2023-10-18T10:30:21.455Z,10.73
2023-10-18T10:32:55.680Z,10.62
2023-10-18T10:35:27.172Z,10.55
2023-10-18T10:37:56.108Z,10.59
2023-10-18T10:40:31.112Z,10.62
2023-10-18T10:43:03.045Z,10.58
2023-10-18T10:45:48.944Z,10.60
2023-10-18T10:48:16.410Z,10.63
2023-10-18T10:50:52.785Z,10.65
2023-10-18T10:53:33.283Z,10.72
2023-10-18T10:56:19.787Z,10.75
2023-10-18T10:58:57.399Z,10.69
2023-10-18T11:01:56.207Z,10.57
2023-10-18T11:04:29.299Z,10.55
2023-10-18T11:06:59.168Z,10.59
2023-10-18T11:09:36.017Z,10.62
2023-10-18T11:12:12.114Z,10.66
2023-10-18T11:14:40.121Z,10.69
2023-10-18T11:17:17.044Z,10.72
2023-10-18T11:19:45.040Z,10.78
2023-10-18T11:22:16.003Z,10.79
2023-10-18T11:24:43.762Z,10.75
2023-10-18T11:27:11.376Z,10.68
2023-10-18T11:29:39.826Z,10.71
2023-10-18T11:32:08.963Z,10.74
2023-10-18T11:34:41.764Z,10.77
2023-10-18T11:37:09.650Z,10.77
2023-10-18T11:39:37.954Z,10.71
2023-10-18T11:42:09.721Z,10.73
2023-10-18T11:44:40.491Z,10.80
2023-10-18T11:47:20.738Z,10.85
2023-10-18T12:00:51.219Z,11.11
2023-10-18T12:03:20.161Z,11.62
2023-10-18T12:05:49.945Z,11.60
2023-10-18T12:08:19.033Z,11.54
2023-10-18T12:10:48.435Z,11.51
2023-10-18T12:13:15.959Z,11.49
2023-10-18T12:15:43.581Z,11.49
2023-10-18T12:18:11.468Z,11.49
2023-10-18T12:20:44.461Z,11.53
2023-10-18T12:23:19.873Z,11.62
2023-10-18T12:25:47.839Z,11.69
2023-10-18T12:28:29.401Z,11.74
2023-10-18T12:30:57.369Z,11.78
2023-10-18T12:33:28.852Z,11.81
2023-10-18T12:36:01.336Z,11.84
2023-10-18T12:38:44.625Z,11.86
2023-10-18T12:41:29.107Z,11.96
2023-10-18T12:43:56.626Z,12.10
2023-10-18T12:46:24.270Z,12.20
2023-10-18T12:48:53.081Z,12.27
2023-10-18T12:51:21.342Z,12.24
2023-10-18T12:53:49.613Z,12.16
2023-10-18T12:56:29.449Z,12.06
2023-10-18T12:59:00.225Z,11.97
2023-10-18T13:01:45.550Z,11.90
2023-10-18T13:04:20.009Z,11.79
2023-10-18T13:06:47.750Z,11.72
2023-10-18T13:09:15.954Z,11.66
2023-10-18T13:11:45.826Z,11.64
2023-10-18T13:14:34.212Z,11.62
2023-10-18T13:17:05.399Z,11.58
2023-10-18T13:19:33.582Z,11.56
2023-10-18T13:22:01.677Z,11.55
2023-10-18T13:24:32.915Z,11.53
2023-10-18T13:27:04.546Z,11.49
2023-10-18T13:29:32.614Z,11.45
2023-10-18T13:32:00.658Z,11.39
2023-10-18T13:34:48.593Z,11.34
2023-10-18T13:37:17.349Z,11.28
2023-10-18T13:39:49.445Z,11.25
2023-10-18T13:42:20.059Z,11.24
2023-10-18T13:44:47.932Z,11.24
2023-10-18T13:47:15.382Z,11.24
2023-10-18T13:49:44.000Z,11.22
2023-10-18T13:52:12.931Z,11.19
2023-10-18T13:54:40.727Z,11.16
2023-10-18T13:57:08.058Z,11.12
2023-10-18T13:59:40.042Z,11.08
